createdAt,value
2018-08-04T00:00:06.171Z,999.72
2018-08-04T00:01:16.299Z,999.75
2018-08-04T00:02:26.394Z,999.73
2018-08-04T00:03:36.480Z,999.76
2018-08-04T00:04:46.580Z,999.76
2018-08-04T00:05:56.716Z,999.72
2018-08-04T00:07:06.271Z,999.73
2018-08-04T00:08:16.361Z,999.75
2018-08-04T00:09:26.470Z,999.69
2018-08-04T00:10:36.801Z,999.71
2018-08-04T00:11:46.925Z,999.73
2018-08-04T00:12:57.209Z,999.71
2018-08-04T00:14:07.054Z,999.74
2018-08-04T00:15:16.901Z,999.71
2018-08-04T00:16:26.990Z,999.69
2018-08-04T00:17:37.073Z,999.67
2018-08-04T00:18:47.138Z,999.68
2018-08-04T00:19:57.215Z,999.69
2018-08-04T00:21:07.312Z,999.72
2018-08-04T00:22:17.143Z,999.7
2018-08-04T00:23:27.208Z,999.7
2018-08-04T00:24:37.321Z,999.67
2018-08-04T00:25:47.409Z,999.66
2018-08-04T00:26:57.474Z,999.65
2018-08-04T00:28:07.549Z,999.65
2018-08-04T00:29:17.607Z,999.64
2018-08-04T00:30:27.717Z,999.65
2018-08-04T00:31:37.806Z,999.63
2018-08-04T00:32:48.090Z,999.62
2018-08-04T00:33:58.176Z,999.61
2018-08-04T00:35:08.005Z,999.6
2018-08-04T00:36:18.177Z,999.63
2018-08-04T00:37:28.269Z,999.65
2018-08-04T00:38:37.841Z,999.62
2018-08-04T00:39:48.114Z,999.66
2018-08-04T00:40:58.199Z,999.68
2018-08-04T00:42:08.031Z,999.7
2018-08-04T00:43:18.099Z,999.71
2018-08-04T00:44:28.200Z,999.7
2018-08-04T00:45:38.264Z,999.72
2018-08-04T00:46:48.336Z,999.72
2018-08-04T00:47:58.424Z,999.71
2018-08-04T00:49:08.510Z,999.69
2018-08-04T00:50:18.328Z,999.7
2018-08-04T00:51:28.144Z,999.69
2018-08-04T00:52:38.256Z,999.69
2018-08-04T00:53:48.338Z,999.7
2018-08-04T00:54:58.154Z,999.7
2018-08-04T00:56:08.253Z,999.69
2018-08-04T00:57:18.333Z,999.67
2018-08-04T00:58:28.413Z,999.69
2018-08-04T00:59:38.552Z,999.69
2018-08-04T01:00:48.626Z,999.71
2018-08-04T01:01:58.729Z,999.71
2018-08-04T01:03:08.807Z,999.74
2018-08-04T01:04:18.892Z,999.71
2018-08-04T01:05:28.780Z,999.74
2018-08-04T01:06:38.871Z,999.72
2018-08-04T01:07:48.958Z,999.69
2018-08-04T01:08:59.035Z,999.69
2018-08-04T01:10:08.844Z,999.71
2018-08-04T01:11:18.712Z,999.67
2018-08-04T01:12:28.529Z,999.64
2018-08-04T01:13:38.344Z,999.62
2018-08-04T01:14:48.552Z,999.6
2018-08-04T01:15:58.654Z,999.58
2018-08-04T01:17:08.778Z,999.55
2018-08-04T01:18:18.860Z,999.58
2018-08-04T01:19:28.933Z,999.57
2018-08-04T01:20:38.777Z,999.57
2018-08-04T01:21:48.342Z,999.53
2018-08-04T01:22:58.214Z,999.56
2018-08-04T01:24:08.296Z,999.54
2018-08-04T01:25:17.588Z,999.52
2018-08-04T01:26:27.666Z,999.53
2018-08-04T01:27:37.470Z,999.52
2018-08-04T01:28:47.679Z,999.47
2018-08-04T01:29:57.759Z,999.49
2018-08-04T01:31:07.835Z,999.47
2018-08-04T01:32:17.906Z,999.47
2018-08-04T01:33:27.987Z,999.48
2018-08-04T01:34:37.787Z,999.46
2018-08-04T01:35:47.625Z,999.46
2018-08-04T01:36:57.437Z,999.46
2018-08-04T01:38:07.526Z,999.46
2018-08-04T01:39:17.612Z,999.44
2018-08-04T01:40:27.686Z,999.43
2018-08-04T01:41:37.769Z,999.41
2018-08-04T01:42:47.857Z,999.41
2018-08-04T01:43:57.946Z,999.41
2018-08-04T01:45:08.023Z,999.4
2018-08-04T01:46:18.171Z,999.41
2018-08-04T01:47:28.009Z,999.41
2018-08-04T01:48:38.087Z,999.43
2018-08-04T01:49:47.901Z,999.45
2018-08-04T01:50:57.980Z,999.4
2018-08-04T01:52:08.070Z,999.43
2018-08-04T01:53:18.136Z,999.41
2018-08-04T01:54:28.207Z,999.4
2018-08-04T01:55:38.291Z,999.4
2018-08-04T01:56:48.420Z,999.43
2018-08-04T01:57:58.497Z,999.47
2018-08-04T01:59:08.632Z,999.44
2018-08-04T02:00:19.065Z,999.45
2018-08-04T02:01:29.168Z,999.49
2018-08-04T02:02:39.243Z,999.49
2018-08-04T02:03:49.360Z,999.48
2018-08-04T02:04:59.485Z,999.48
2018-08-04T02:06:09.577Z,999.45
2018-08-04T02:07:19.686Z,999.43
2018-08-04T02:08:30.006Z,999.39
2018-08-04T02:09:40.109Z,999.38
2018-08-04T02:10:50.188Z,999.39
2018-08-04T02:12:00.278Z,999.39
2018-08-04T02:13:10.404Z,999.37
2018-08-04T02:14:20.472Z,999.38
2018-08-04T02:15:30.646Z,999.38
2018-08-04T02:16:40.721Z,999.36
2018-08-04T02:17:50.811Z,999.34
2018-08-04T02:19:00.623Z,999.3
2018-08-04T02:20:10.444Z,999.3
2018-08-04T02:21:20.546Z,999.31
2018-08-04T02:22:30.351Z,999.3
2018-08-04T02:23:40.444Z,999.3
2018-08-04T02:24:50.545Z,999.31
2018-08-04T02:26:00.615Z,999.34
2018-08-04T02:27:10.426Z,999.36
2018-08-04T02:28:20.533Z,999.34
2018-08-04T02:29:30.631Z,999.36
2018-08-04T02:30:40.470Z,999.37
2018-08-04T02:31:50.557Z,999.35
2018-08-04T02:33:00.642Z,999.37
2018-08-04T02:34:10.720Z,999.4
2018-08-04T02:35:20.556Z,999.37
2018-08-04T02:36:30.644Z,999.38
2018-08-04T02:37:40.456Z,999.43
2018-08-04T02:38:50.546Z,999.44
2018-08-04T02:40:00.628Z,999.44
2018-08-04T02:41:10.467Z,999.46
2018-08-04T02:42:20.588Z,999.4
2018-08-04T02:43:30.698Z,999.42
2018-08-04T02:44:40.563Z,999.43
2018-08-04T02:45:50.653Z,999.42
2018-08-04T02:47:00.744Z,999.44
2018-08-04T02:48:10.848Z,999.41
2018-08-04T02:49:20.667Z,999.41
2018-08-04T02:50:30.790Z,999.38
2018-08-04T02:51:40.871Z,999.39
2018-08-04T02:52:50.953Z,999.37
2018-08-04T02:54:01.050Z,999.36
2018-08-04T02:55:11.137Z,999.39
2018-08-04T02:56:21.225Z,999.37
2018-08-04T02:57:31.335Z,999.33
2018-08-04T02:58:41.420Z,999.37
2018-08-04T02:59:51.512Z,999.37
2018-08-04T03:01:01.593Z,999.39
2018-08-04T03:02:11.743Z,999.37
2018-08-04T03:35:01.573Z,999.34
2018-08-04T03:36:11.400Z,999.37
2018-08-04T03:37:21.495Z,999.38
2018-08-04T03:38:31.048Z,999.39
2018-08-04T03:39:41.118Z,999.39
2018-08-04T03:40:51.551Z,999.4
2018-08-04T03:42:01.650Z,999.42
2018-08-04T03:43:11.787Z,999.44
2018-08-04T03:44:21.868Z,999.51
2018-08-04T03:45:31.969Z,999.54
2018-08-04T03:46:42.090Z,999.51
2018-08-04T03:47:52.177Z,999.52
2018-08-04T03:49:01.996Z,999.52
2018-08-04T03:50:11.577Z,999.52
2018-08-04T03:51:21.648Z,999.52
2018-08-04T03:52:31.723Z,999.52
2018-08-04T03:53:41.796Z,999.49
2018-08-04T03:54:51.873Z,999.52
2018-08-04T03:56:01.961Z,999.51
2018-08-04T03:57:11.774Z,999.56
2018-08-04T03:58:21.833Z,999.55
2018-08-04T03:59:31.914Z,999.56
2018-08-04T04:00:41.944Z,999.58
2018-08-04T04:01:51.750Z,999.58
2018-08-04T04:03:01.304Z,999.59
2018-08-04T04:04:11.179Z,999.63
2018-08-04T04:05:21.039Z,999.68
2018-08-04T04:06:30.854Z,999.65
2018-08-04T04:07:41.263Z,999.66
2018-08-04T04:08:51.555Z,999.63
2018-08-04T04:10:01.683Z,999.67
2018-08-04T04:11:11.757Z,999.69
2018-08-04T04:12:21.827Z,999.71
2018-08-04T04:13:31.662Z,999.71
2018-08-04T04:14:41.790Z,999.76
2018-08-04T04:15:51.648Z,999.77
2018-08-04T04:17:01.745Z,999.73
2018-08-04T04:18:11.831Z,999.78
2018-08-04T04:19:21.467Z,999.81
2018-08-04T04:20:31.538Z,999.79
2018-08-04T04:21:41.362Z,999.82
2018-08-04T04:22:51.451Z,999.81
2018-08-04T04:24:01.260Z,999.8
2018-08-04T04:25:11.336Z,999.83
2018-08-04T04:26:21.414Z,999.85
2018-08-04T04:27:31.485Z,999.91
2018-08-04T04:28:41.295Z,999.89
2018-08-04T04:29:51.378Z,999.95
2018-08-04T04:31:01.214Z,1000.05
2018-08-04T04:32:11.021Z,1000.12
2018-08-04T04:33:20.873Z,1000.08
2018-08-04T04:34:30.976Z,1000.09
2018-08-04T04:35:41.046Z,1000.09
2018-08-04T04:36:51.168Z,999.99
2018-08-04T04:38:01.708Z,999.97
2018-08-04T04:39:11.816Z,999.95
2018-08-04T04:40:21.374Z,999.99
2018-08-04T04:41:31.206Z,999.99
2018-08-04T04:42:41.303Z,999.97
2018-08-04T04:43:51.374Z,1000
2018-08-04T04:45:01.467Z,1000.04
2018-08-04T04:46:11.536Z,1000.04
2018-08-04T04:47:21.367Z,1000.1
2018-08-04T04:48:31.517Z,1000.09
2018-08-04T04:49:41.912Z,1000.09
2018-08-04T04:50:51.978Z,1000.08
2018-08-04T04:52:02.069Z,1000.11
2018-08-04T04:53:11.884Z,1000.21
2018-08-04T04:54:21.954Z,1000.27
2018-08-04T04:55:31.821Z,1000.34
2018-08-04T04:56:41.781Z,1000.39
2018-08-04T04:57:51.874Z,1000.37
2018-08-04T04:59:01.966Z,1000.4
2018-08-04T05:00:12.038Z,1000.38
2018-08-04T05:01:22.116Z,1000.4
2018-08-04T05:02:32.302Z,1000.35
2018-08-04T05:03:42.128Z,1000.37
2018-08-04T05:04:52.203Z,1000.42
2018-08-04T05:06:02.336Z,1000.74
2018-08-04T05:07:12.404Z,1000.81
2018-08-04T05:08:22.534Z,1000.61
2018-08-04T05:09:32.611Z,1000.64
2018-08-04T05:10:42.696Z,1000.62
2018-08-04T05:11:52.790Z,1000.56
2018-08-04T05:13:02.874Z,1000.61
2018-08-04T05:14:13.071Z,1000.7
2018-08-04T05:15:23.177Z,1000.74
2018-08-04T05:16:33.250Z,1000.7
2018-08-04T05:17:43.331Z,1000.63
2018-08-04T05:18:53.434Z,1000.63
2018-08-04T05:20:03.329Z,1000.56
2018-08-04T05:21:13.428Z,1000.67
2018-08-04T05:22:23.519Z,1000.74
2018-08-04T05:23:33.366Z,1000.66
2018-08-04T05:24:43.466Z,1000.65
2018-08-04T05:25:53.568Z,1000.65
2018-08-04T05:27:03.372Z,1000.69
2018-08-04T05:28:13.463Z,1000.69
2018-08-04T05:29:23.273Z,1000.66
2018-08-04T05:30:33.352Z,1000.7
2018-08-04T05:31:43.183Z,1000.68
2018-08-04T05:32:53.314Z,1000.66
2018-08-04T05:34:03.162Z,1000.68
2018-08-04T05:35:13.484Z,1000.66
2018-08-04T05:36:23.287Z,1000.6
2018-08-04T05:37:33.181Z,1000.58
2018-08-04T05:38:43.276Z,1000.59
2018-08-04T05:39:53.091Z,1000.63
2018-08-04T05:41:03.216Z,1000.61
2018-08-04T05:42:13.281Z,1000.55
2018-08-04T05:43:23.440Z,1000.55
2018-08-04T05:44:34.120Z,1000.55
2018-08-04T05:45:43.944Z,1000.54
2018-08-04T05:46:54.036Z,1000.56
2018-08-04T05:48:03.872Z,1000.58
2018-08-04T05:49:13.999Z,1000.59
2018-08-04T05:50:23.824Z,1000.57
2018-08-04T05:51:33.918Z,1000.59
2018-08-04T05:52:43.739Z,1000.58
2018-08-04T05:53:53.819Z,1000.57
2018-08-04T05:55:03.959Z,1000.54
2018-08-04T05:56:14.043Z,1000.58
2018-08-04T05:57:24.404Z,1000.59
2018-08-04T05:58:34.486Z,1000.58
2018-08-04T05:59:44.589Z,1000.59
2018-08-04T06:00:54.688Z,1000.56
2018-08-04T06:02:04.793Z,1000.59
2018-08-04T06:03:14.886Z,1000.57
2018-08-04T06:04:25.288Z,1000.56
2018-08-04T06:05:35.379Z,1000.55
2018-08-04T06:06:45.191Z,1000.33
2018-08-04T06:07:55.266Z,1000.27
2018-08-04T06:09:05.079Z,1000.28
2018-08-04T06:10:15.177Z,1000.25
2018-08-04T06:11:25.258Z,1000.29
2018-08-04T06:12:35.372Z,1000.26
2018-08-04T06:13:45.473Z,1000.29
2018-08-04T06:14:55.551Z,1000.26
2018-08-04T06:16:05.630Z,1000.27
2018-08-04T06:17:15.694Z,1000.27
2018-08-04T06:18:25.765Z,1000.31
2018-08-04T06:19:35.889Z,1000.32
2018-08-04T06:20:46.189Z,1000.31
2018-08-04T06:21:56.300Z,1000.31
2018-08-04T06:23:06.280Z,1000.32
2018-08-04T06:24:16.424Z,1000.31
2018-08-04T06:25:26.529Z,1000.3
2018-08-04T06:26:36.610Z,1000.31
2018-08-04T06:27:46.429Z,1000.26
2018-08-04T06:28:56.259Z,1000.26
2018-08-04T06:30:06.403Z,1000.28
2018-08-04T06:31:16.505Z,1000.27
2018-08-04T06:32:26.590Z,1000.23
2018-08-04T06:33:36.781Z,1000.21
2018-08-04T06:34:47.541Z,1000.24
2018-08-04T06:35:57.369Z,1000.19
2018-08-04T06:37:07.486Z,1000.23
2018-08-04T06:38:17.304Z,1000.23
2018-08-04T06:39:27.390Z,1000.19
2018-08-04T06:40:37.466Z,1000.21
2018-08-04T06:41:47.559Z,1000.19
2018-08-04T06:42:57.398Z,1000.17
2018-08-04T06:44:07.496Z,1000.23
2018-08-04T06:45:17.334Z,1000.15
2018-08-04T06:46:27.418Z,1000.18
2018-08-04T06:47:37.256Z,1000.15
2018-08-04T06:48:46.828Z,1000.14
2018-08-04T06:49:56.640Z,1000.16
2018-08-04T06:51:06.732Z,1000.18
2018-08-04T06:52:16.832Z,1000.16
2018-08-04T06:53:26.674Z,1000.18
2018-08-04T06:54:36.764Z,1000.17
2018-08-04T06:55:46.595Z,1000.16
2018-08-04T06:56:56.420Z,1000.09
2018-08-04T06:58:06.503Z,1000.15
2018-08-04T06:59:16.473Z,1000.17
2018-08-04T07:00:26.619Z,1000.16
2018-08-04T07:01:36.186Z,1000.16
2018-08-04T07:02:46.246Z,1000.17
2018-08-04T07:03:55.806Z,1000.16
2018-08-04T07:05:05.627Z,1000.16
2018-08-04T07:06:15.658Z,1000.14
2018-08-04T07:07:25.743Z,1000.17
2018-08-04T07:08:35.829Z,1000.16
2018-08-04T07:09:45.926Z,1000.2
2018-08-04T07:10:55.762Z,1000.2
2018-08-04T07:12:05.585Z,1000.16
2018-08-04T07:13:15.697Z,1000.17
2018-08-04T07:14:25.789Z,1000.14
2018-08-04T07:15:35.901Z,1000.16
2018-08-04T07:16:45.982Z,1000.12
2018-08-04T07:17:56.061Z,1000.1
2018-08-04T07:19:05.919Z,1000.05
2018-08-04T07:20:16.037Z,1000.1
2018-08-04T07:21:26.133Z,1000.07
2018-08-04T07:22:36.245Z,1000.11
2018-08-04T07:23:46.094Z,1000.14
2018-08-04T07:24:56.212Z,1000.1
2018-08-04T07:26:06.314Z,1000.11
2018-08-04T07:27:16.417Z,1000.12
2018-08-04T07:28:26.558Z,1000.1
2018-08-04T07:29:36.408Z,1000.15
2018-08-04T07:30:46.225Z,1000.16
2018-08-04T07:31:56.239Z,1000.14
2018-08-04T07:33:06.065Z,1000.16
2018-08-04T07:34:16.192Z,1000.13
2018-08-04T07:35:26.316Z,1000.12
2018-08-04T07:36:35.891Z,1000.15
2018-08-04T07:37:45.986Z,1000.14
2018-08-04T07:38:56.086Z,1000.13
2018-08-04T07:40:05.954Z,1000.1
2018-08-04T07:41:15.777Z,1000.08
2018-08-04T07:42:25.881Z,1000.09
2018-08-04T07:43:35.967Z,1000.08
2018-08-04T07:44:46.052Z,1000.11
2018-08-04T07:45:56.122Z,1000.14
2018-08-04T07:47:06.195Z,1000.12
2018-08-04T07:48:16.275Z,1000.13
2018-08-04T07:49:26.119Z,1000.14
2018-08-04T07:50:35.675Z,1000.09
2018-08-04T07:51:45.821Z,1000.09
2018-08-04T07:52:55.923Z,1000.07
2018-08-04T07:54:05.756Z,1000.03
2018-08-04T07:55:15.900Z,1000.06
2018-08-04T07:56:25.729Z,1000.04
2018-08-04T07:57:35.553Z,1000.07
2018-08-04T07:58:45.367Z,1000.01
2018-08-04T07:59:55.452Z,1000.03
2018-08-04T08:01:05.273Z,1000
2018-08-04T08:02:15.356Z,999.98
2018-08-04T08:03:25.457Z,999.96
2018-08-04T08:04:35.549Z,999.96
2018-08-04T08:05:45.633Z,999.89
2018-08-04T08:06:55.719Z,999.9
2018-08-04T08:08:05.013Z,999.93
2018-08-04T08:09:15.395Z,999.94
2018-08-04T08:10:25.601Z,999.93
2018-08-04T08:11:36.356Z,999.94
2018-08-04T08:12:46.449Z,999.94
2018-08-04T08:13:56.576Z,999.93
2018-08-04T08:15:06.477Z,999.9
2018-08-04T08:16:16.579Z,999.89
2018-08-04T08:17:26.670Z,999.9
2018-08-04T08:18:36.741Z,999.89
2018-08-04T08:19:46.880Z,999.88
2018-08-04T08:20:56.962Z,999.83
2018-08-04T08:22:06.792Z,999.81
2018-08-04T08:23:16.693Z,999.83
2018-08-04T08:24:26.915Z,999.85
2018-08-04T08:25:37.027Z,999.81
2018-08-04T08:26:47.108Z,999.78
2018-08-04T08:27:56.731Z,999.78
2018-08-04T08:29:06.828Z,999.81
2018-08-04T08:30:16.654Z,999.8
2018-08-04T08:31:26.344Z,999.78
2018-08-04T08:32:36.770Z,999.78
2018-08-04T08:33:47.259Z,999.8
2018-08-04T08:34:57.342Z,999.79
2018-08-04T08:36:07.192Z,999.77
2018-08-04T08:37:17.299Z,999.75
2018-08-04T08:38:27.113Z,999.75
2018-08-04T08:39:37.002Z,999.73
2018-08-04T08:40:46.827Z,999.72
2018-08-04T08:41:56.951Z,999.7
2018-08-04T08:43:07.047Z,999.72
2018-08-04T08:44:17.149Z,999.68
2018-08-04T08:45:27.297Z,999.68
2018-08-04T08:46:37.116Z,999.64
2018-08-04T08:47:46.929Z,999.66
2018-08-04T08:48:57.025Z,999.65
2018-08-04T08:50:07.107Z,999.67
2018-08-04T08:51:16.952Z,999.69
2018-08-04T08:52:27.024Z,999.64
2018-08-04T08:53:37.237Z,999.65
2018-08-04T08:54:48.027Z,999.66
2018-08-04T08:55:58.398Z,999.68
2018-08-04T08:57:08.227Z,999.7
2018-08-04T08:58:18.306Z,999.69
2018-08-04T08:59:28.196Z,999.75
2018-08-04T09:00:38.048Z,999.7
2018-08-04T09:01:48.168Z,999.7
2018-08-04T09:02:58.364Z,999.68
2018-08-04T09:04:08.391Z,999.69
2018-08-04T09:05:18.694Z,999.69
2018-08-04T09:06:28.895Z,999.65
2018-08-04T09:07:39.321Z,999.63
2018-08-04T09:08:49.471Z,999.62
2018-08-04T09:09:59.915Z,999.64
2018-08-04T09:11:10.253Z,999.67
2018-08-04T09:12:20.729Z,999.61
2018-08-04T09:13:30.891Z,999.62
2018-08-04T09:14:41.000Z,999.62
2018-08-04T09:15:51.092Z,999.62
2018-08-04T09:17:00.937Z,999.61
2018-08-04T09:18:11.043Z,999.64
2018-08-04T09:19:20.871Z,999.63
2018-08-04T09:20:30.953Z,999.58
2018-08-04T09:21:41.052Z,999.58
2018-08-04T09:22:51.157Z,999.59
2018-08-04T09:24:01.551Z,999.64
2018-08-04T09:25:11.660Z,999.62
2018-08-04T09:26:21.757Z,999.58
2018-08-04T09:27:31.358Z,999.6
2018-08-04T09:28:41.203Z,999.57
2018-08-04T09:29:51.276Z,999.57
2018-08-04T09:31:01.113Z,999.59
2018-08-04T09:32:10.733Z,999.62
2018-08-04T09:33:20.815Z,999.57
2018-08-04T09:34:30.646Z,999.57
2018-08-04T09:35:40.730Z,999.54
2018-08-04T09:36:50.823Z,999.52
2018-08-04T09:38:01.059Z,999.55
2018-08-04T09:39:11.269Z,999.53
2018-08-04T09:40:21.344Z,999.58
2018-08-04T09:41:31.166Z,999.57
2018-08-04T09:42:40.990Z,999.56
2018-08-04T09:43:51.193Z,999.55
2018-08-04T09:45:01.036Z,999.55
2018-08-04T09:46:11.131Z,999.58
2018-08-04T09:47:21.216Z,999.6
2018-08-04T09:48:31.035Z,999.57
2018-08-04T09:49:41.106Z,999.55
2018-08-04T09:50:51.197Z,999.55
2018-08-04T09:52:01.266Z,999.57
2018-08-04T09:53:11.353Z,999.58
2018-08-04T09:54:21.170Z,999.6
2018-08-04T09:55:31.280Z,999.56
2018-08-04T09:56:41.382Z,999.6
2018-08-04T09:57:51.477Z,999.57
2018-08-04T09:59:01.564Z,999.54
2018-08-04T10:00:11.415Z,999.5
2018-08-04T10:01:21.515Z,999.5
2018-08-04T10:02:31.614Z,999.48
2018-08-04T10:03:41.433Z,999.5
2018-08-04T10:04:51.537Z,999.47
2018-08-04T10:06:01.699Z,999.45
2018-08-04T10:07:11.833Z,999.49
2018-08-04T10:08:21.722Z,999.45
2018-08-04T10:09:31.821Z,999.5
2018-08-04T10:10:41.946Z,999.49
2018-08-04T10:11:52.079Z,999.48
2018-08-04T10:13:02.292Z,999.49
2018-08-04T10:14:12.719Z,999.47
2018-08-04T10:15:22.856Z,999.47
2018-08-04T10:16:32.980Z,999.44
2018-08-04T10:17:43.083Z,999.4
2018-08-04T10:18:53.192Z,999.38
2018-08-04T10:20:03.336Z,999.42
2018-08-04T10:21:13.815Z,999.4
2018-08-04T10:22:23.979Z,999.44
2018-08-04T10:23:34.386Z,999.42
2018-08-04T10:24:47.624Z,999.41
2018-08-04T10:26:00.522Z,999.36
2018-08-04T10:27:14.345Z,999.45
2018-08-04T10:28:27.329Z,999.39
2018-08-04T10:29:38.951Z,999.34
2018-08-04T10:30:48.797Z,999.4
2018-08-04T10:31:58.997Z,999.4
2018-08-04T10:33:09.382Z,999.46
2018-08-04T10:34:19.214Z,999.37
2018-08-04T10:35:29.360Z,999.41
2018-08-04T10:36:39.484Z,999.4
2018-08-04T10:37:49.580Z,999.37
2018-08-04T10:38:59.673Z,999.37
2018-08-04T10:40:09.758Z,999.35
2018-08-04T10:41:19.921Z,999.36
2018-08-04T10:42:29.755Z,999.34
2018-08-04T10:43:39.840Z,999.34
2018-08-04T10:44:50.232Z,999.34
2018-08-04T10:46:00.046Z,999.36
2018-08-04T10:47:10.152Z,999.36
2018-08-04T10:48:20.273Z,999.33
2018-08-04T10:49:30.371Z,999.32
2018-08-04T10:50:40.898Z,999.34
2018-08-04T10:51:51.000Z,999.31
2018-08-04T10:53:01.163Z,999.35
2018-08-04T10:54:11.725Z,999.36
2018-08-04T10:55:21.835Z,999.34
2018-08-04T10:56:31.924Z,999.34
2018-08-04T10:57:42.019Z,999.3
2018-08-04T10:58:51.965Z,999.3
2018-08-04T11:00:01.803Z,999.24
2018-08-04T11:01:11.646Z,999.29
2018-08-04T11:02:21.752Z,999.23
2018-08-04T11:03:31.832Z,999.27
2018-08-04T11:04:41.657Z,999.26
2018-08-04T11:05:51.766Z,999.22
2018-08-04T11:07:01.873Z,999.22
2018-08-04T11:08:11.711Z,999.21
2018-08-04T11:09:21.813Z,999.2
2018-08-04T11:10:31.638Z,999.21
2018-08-04T11:11:41.741Z,999.18
2018-08-04T11:12:51.560Z,999.19
2018-08-04T11:14:01.649Z,999.17
2018-08-04T11:15:11.757Z,999.13
2018-08-04T11:16:21.589Z,999.14
2018-08-04T11:17:31.704Z,999.12
2018-08-04T11:18:41.828Z,999.06
2018-08-04T11:19:51.912Z,999.06
2018-08-04T11:21:02.008Z,999.03
2018-08-04T11:22:12.188Z,999.06
2018-08-04T11:23:22.017Z,999.06
2018-08-04T11:24:32.114Z,999
2018-08-04T11:25:41.963Z,999
2018-08-04T11:26:52.080Z,999.01
2018-08-04T11:28:02.424Z,999.02
2018-08-04T11:29:12.554Z,998.99
2018-08-04T11:30:22.664Z,999.06
2018-08-04T11:31:32.770Z,999.06
2018-08-04T11:32:42.616Z,999
2018-08-04T11:33:52.730Z,999.05
2018-08-04T11:35:02.574Z,999.03
2018-08-04T11:36:12.660Z,999.03
2018-08-04T11:37:22.495Z,998.97
2018-08-04T11:38:32.588Z,998.98
2018-08-04T11:39:42.420Z,998.97
2018-08-04T11:40:52.534Z,998.96
2018-08-04T11:42:02.637Z,998.92
2018-08-04T11:43:12.466Z,998.89
2018-08-04T11:44:22.540Z,998.89
2018-08-04T11:45:32.763Z,998.9
2018-08-04T11:46:43.108Z,998.78
2018-08-04T11:47:53.348Z,998.82
2018-08-04T11:49:03.194Z,998.72
2018-08-04T11:50:13.016Z,998.73
2018-08-04T11:51:22.857Z,998.74
2018-08-04T11:52:33.160Z,998.74
2018-08-04T11:53:43.277Z,998.74
2018-08-04T11:54:53.367Z,998.71
2018-08-04T11:56:03.446Z,998.74
2018-08-04T11:57:13.616Z,998.8
2018-08-04T11:58:23.459Z,998.77
2018-08-04T11:59:33.359Z,998.71
2018-08-04T12:00:43.440Z,998.71
2018-08-04T12:01:53.334Z,998.75
2018-08-04T12:03:03.431Z,998.73
2018-08-04T12:04:13.539Z,998.71
2018-08-04T12:05:23.452Z,998.71
2018-08-04T12:06:33.951Z,998.75
2018-08-04T12:07:43.530Z,998.7
2018-08-04T12:08:53.683Z,998.67
2018-08-04T12:10:04.069Z,998.71
2018-08-04T12:11:14.242Z,998.69
2018-08-04T12:12:23.748Z,998.66
2018-08-04T12:13:33.653Z,998.61
2018-08-04T12:14:43.775Z,998.63
2018-08-04T12:15:54.348Z,998.61
2018-08-04T12:17:04.458Z,998.62
2018-08-04T12:18:14.901Z,998.58
2018-08-04T12:19:25.201Z,998.57
2018-08-04T12:20:35.352Z,998.54
2018-08-04T12:21:45.515Z,998.56
2018-08-04T12:22:56.187Z,998.57
2018-08-04T12:24:06.307Z,998.57
2018-08-04T12:25:16.425Z,998.58
2018-08-04T12:26:26.635Z,998.54
2018-08-04T12:27:36.746Z,998.52
2018-08-04T12:28:46.593Z,998.5
2018-08-04T12:29:56.469Z,998.49
2018-08-04T12:31:07.007Z,998.44
2018-08-04T12:32:17.295Z,998.45
2018-08-04T12:33:27.189Z,998.42
2018-08-04T12:34:37.298Z,998.38
2018-08-04T12:35:47.376Z,998.4
2018-08-04T12:36:57.198Z,998.42
2018-08-04T12:38:07.027Z,998.43
2018-08-04T12:39:17.124Z,998.39
2018-08-04T12:40:27.224Z,998.36
2018-08-04T12:41:37.325Z,998.33
2018-08-04T12:42:47.423Z,998.33
2018-08-04T12:43:57.258Z,998.29
2018-08-04T12:45:07.364Z,998.27
2018-08-04T12:46:17.438Z,998.27
2018-08-04T12:47:27.554Z,998.29
2018-08-04T12:48:37.666Z,998.27
2018-08-04T12:49:47.518Z,998.27
2018-08-04T12:50:57.638Z,998.28
2018-08-04T12:52:07.751Z,998.26
2018-08-04T12:53:17.576Z,998.26
2018-08-04T12:54:27.471Z,998.32
2018-08-04T12:55:37.939Z,998.27
2018-08-04T12:56:48.080Z,998.27
2018-08-04T12:57:57.932Z,998.26
2018-08-04T12:59:08.037Z,998.25
2018-08-04T13:00:17.886Z,998.23
2018-08-04T13:01:28.080Z,998.21
2018-08-04T13:02:38.247Z,998.21
2018-08-04T13:03:48.685Z,998.2
2018-08-04T13:04:58.794Z,998.22
2018-08-04T13:06:08.614Z,998.21
2018-08-04T13:07:18.183Z,998.21
2018-08-04T13:08:28.323Z,998.23
2018-08-04T13:09:38.459Z,998.24
2018-08-04T13:10:48.610Z,998.21
2018-08-04T13:11:58.495Z,998.18
2018-08-04T13:13:08.896Z,998.16
2018-08-04T13:14:19.016Z,998.15
2018-08-04T13:15:29.090Z,998.16
2018-08-04T13:16:38.931Z,998.14
2018-08-04T13:17:49.029Z,998.18
2018-08-04T13:18:58.858Z,998.15
2018-08-04T13:20:08.959Z,998.15
2018-08-04T13:21:19.060Z,998.17
2018-08-04T13:22:29.148Z,998.13
2018-08-04T13:23:38.991Z,998.13
2018-08-04T13:24:49.061Z,998.12
2018-08-04T13:25:59.141Z,998.15
2018-08-04T13:27:09.242Z,998.13
2018-08-04T13:28:19.119Z,998.1
2018-08-04T13:29:29.215Z,998.11
2018-08-04T13:30:39.102Z,998.13
2018-08-04T13:31:49.221Z,998.13
2018-08-04T13:32:59.323Z,998.07
2018-08-04T13:34:09.413Z,998.05
2018-08-04T13:35:19.510Z,998.06
2018-08-04T13:36:29.075Z,998.06
2018-08-04T13:37:39.231Z,998.06
2018-08-04T13:38:49.045Z,998.03
2018-08-04T13:39:59.176Z,998.01
2018-08-04T13:41:09.265Z,998.06
2018-08-04T13:42:19.379Z,998.05
2018-08-04T13:43:29.563Z,998.08
2018-08-04T13:44:39.471Z,998.07
2018-08-04T13:45:49.569Z,998.04
2018-08-04T13:46:59.685Z,998
2018-08-04T13:48:09.512Z,998.01
2018-08-04T13:49:19.675Z,998.03
2018-08-04T13:50:29.532Z,998
2018-08-04T13:51:39.649Z,998.01
2018-08-04T13:52:49.751Z,998
2018-08-04T13:53:59.860Z,998.03
2018-08-04T13:55:10.011Z,998.01
2018-08-04T13:56:19.850Z,998.06
2018-08-04T13:57:29.943Z,998
2018-08-04T13:58:40.042Z,997.97
2018-08-04T13:59:50.146Z,997.93
2018-08-04T14:01:00.259Z,997.94
2018-08-04T14:02:10.369Z,997.89
2018-08-04T14:03:20.489Z,997.9
2018-08-04T14:04:30.369Z,997.9
2018-08-04T14:05:40.481Z,997.88
2018-08-04T14:06:50.710Z,997.87
2018-08-04T14:08:00.829Z,997.86
2018-08-04T14:09:10.917Z,997.85
2018-08-04T14:10:21.023Z,997.82
2018-08-04T14:11:30.322Z,997.88
2018-08-04T14:12:40.733Z,997.83
2018-08-04T14:13:50.664Z,997.81
2018-08-04T14:15:00.766Z,997.81
2018-08-04T14:16:10.885Z,997.77
2018-08-04T14:17:20.994Z,997.84
2018-08-04T14:18:31.188Z,997.81
2018-08-04T14:19:41.310Z,997.82
2018-08-04T14:20:51.164Z,997.82
2018-08-04T14:22:01.301Z,997.79
2018-08-04T14:23:11.188Z,997.77
2018-08-04T14:24:21.334Z,997.79
2018-08-04T14:25:31.227Z,997.81
2018-08-04T14:26:41.340Z,997.8
2018-08-04T14:27:51.443Z,997.78
2018-08-04T14:29:01.553Z,997.79
2018-08-04T14:30:11.665Z,997.77
2018-08-04T14:31:21.833Z,997.79
2018-08-04T14:32:32.427Z,997.74
2018-08-04T14:33:42.527Z,997.78
2018-08-04T14:34:52.690Z,997.73
2018-08-04T14:36:03.315Z,997.71
2018-08-04T14:37:13.399Z,997.7
2018-08-04T14:38:23.512Z,997.67
2018-08-04T14:39:33.590Z,997.71
2018-08-04T14:40:43.718Z,997.71
2018-08-04T14:41:53.825Z,997.68
2018-08-04T14:43:03.949Z,997.66
2018-08-04T14:44:14.057Z,997.63
2018-08-04T14:45:24.164Z,997.66
2018-08-04T14:46:34.259Z,997.58
2018-08-04T14:47:44.355Z,997.6
2018-08-04T14:48:54.475Z,997.62
2018-08-04T14:50:04.304Z,997.6
2018-08-04T14:51:14.392Z,997.6
2018-08-04T14:52:24.503Z,997.59
2018-08-04T14:53:34.592Z,997.63
2018-08-04T14:54:44.477Z,997.63
2018-08-04T14:55:54.563Z,997.61
2018-08-04T14:57:04.657Z,997.58
2018-08-04T14:58:14.506Z,997.6
2018-08-04T14:59:24.628Z,997.59
2018-08-04T15:00:34.741Z,997.58
2018-08-04T15:01:44.831Z,997.59
2018-08-04T15:02:54.748Z,997.57